默认 日期 大小 文件数 浏览量 最新下载 xml
keanu磁力链接相关资源由用户搜索指令自动获取,结果来源于网络,本站不存储任何资料,亦不承担任何责任,请于24小时内删除,搜索到364个磁力,用时0ms。
    ... 影作品.url": 150}, "Keanu.2016.BluRay.1080p.AVC.DTS ...
创建时间: 2021-08-14 10:22:30 大小:27.51 GB 文件数量:31 热度:4 最近下载:2025-01-21 18:52:09
    {"02. Dracula.1992.BDRip.LT.avi": 2570450944, "03. Speed.1994.BDRip.LT.EN-CNN.avi": 2342871040, "16. Street.Kings.2008.BDRip.Lt.avi": 1554102272, "12. Hard.Ball.2001.DVDRip.LT.RU.avi": 1567369216, "20. 47 Ronin.2013.BDRip.LT.EN-TRL.avi": 2346143744, "11. ...
创建时间: 2021-08-18 18:52:40 大小:39.33 GB 文件数量:20 热度:3 最近下载:2025-01-21 00:04:03
    {"RARBG.txt": 30, "RARBG_DO_NOT_MIRROR.exe": 99, "Celebrity.IOU.Joyride.S01E03.This.Ones.for.You.Keanu.720p.WEBRip.x264-KOMPOST.mkv": 988398114, "celebrity.iou.joyride.s01e03.this.ones.for.you.keanu.720p.webrip.x264-kompost.nfo": 254}
创建时间: 2021-09-11 16:23:43 大小:942.61 MB 文件数量:4 热度:5 最近下载:2025-03-13 06:44:02
    ... .txt": 52, "The Bad Batch - Keanu Reeves 2017 Eng Fre Ita ...
创建时间: 2021-10-19 16:57:15 大小:1.76 GB 文件数量:24 热度:5 最近下载:2025-01-20 20:09:02
    {"RARBG.txt": 30, "RARBG_DO_NOT_MIRROR.exe": 99, "jimmy.fallon.2020.12.01.keanu.reeves.and.alex.winter.1080p.web.h264-glhf.mkv": 2395001014, "jimmy.fallon.2020.12.01.keanu.reeves.and.alex.winter.1080p.web.h264-glhf.nfo": 73}
创建时间: 2021-10-20 19:57:21 大小:2.23 GB 文件数量:4 热度:5 最近下载:2025-02-03 12:22:03
    {"Keanu.2016.720p.WEB-DL.X264.AC3-EVO.mkv": 3414987387, "Keanu.2016.720p.WEB-DL.X264.AC3-EVO.nfo": 817}
创建时间: 2021-10-27 11:03:46 大小:3.18 GB 文件数量:2 热度:4 最近下载:2025-01-26 02:58:02
    {"Official-Site.txt": 231, "Keanu.2016.720p.Bluray.x264.[MoviesFD].mkv": 833660565}
创建时间: 2021-12-03 07:55:58 大小:795.04 MB 文件数量:2 热度:3 最近下载:2025-01-26 22:42:03
    ... ": 3516697124, "VJ231StateoftheArtJessievsKeanutitfvkmaiiffMay2021dwnld.mp4": 3383592514, "VJ238INeedMoreTime Keanu vDylanandAshtonlofistjAug2021dwnld.mp4": 3546872310}
创建时间: 2021-12-04 06:04:20 大小:9.75 GB 文件数量:17 热度:7 最近下载:2025-03-19 07:50:05
    {"RARBG.txt": 30, "RARBG_DO_NOT_MIRROR.exe": 99, "stephen.colbert.2021.12.13.keanu.reeves.1080p.web.h264-jebaited.mkv": 1530894309, "stephen.colbert.2021.12.13.keanu.reeves.1080p.web.h264-jebaited.nfo": 64}
创建时间: 2021-12-14 17:48:49 大小:1.43 GB 文件数量:4 热度:3 最近下载:2025-01-07 11:53:01
    {"RARBG.txt": 30, "RARBG_DO_NOT_MIRROR.exe": 99, "stephen.colbert.2021.12.13.keanu.reeves.720p.web.h264-jebaited.mkv": 1034575842, "stephen.colbert.2021.12.13.keanu.reeves.720p.web.h264-jebaited.nfo": 63}
创建时间: 2021-12-15 09:42:17 大小:986.65 MB 文件数量:4 热度:6 最近下载:2025-02-14 05:52:02
    {"[TGx]Downloaded from torrentgalaxy.to .txt": 718, "stephen.colbert.2021.12.13.keanu.reeves.720p.web.h264-jebaited.mkv": 1034575842, "stephen.colbert.2021.12.13.keanu.reeves.720p.web.h264-jebaited.nfo": 63}
创建时间: 2021-12-15 20:22:56 大小:986.65 MB 文件数量:3 热度:6 最近下载:2025-01-02 12:42:11
    ... , "Stephen.Colbert.2021.12.13.Keanu.Reeves.480p.x264-mSD.mkv ... , "Stephen.Colbert.2021.12.13.Keanu.Reeves.480p.x264-mSD.nfo ...
创建时间: 2021-12-16 06:41:16 大小:172.47 MB 文件数量:6 热度:4 最近下载:2025-01-03 19:33:11
    {"cover.png": 29580, "Download Free eBooks.txt": 20, "Salads_to_End_All_Diets.epub": 20507547}
创建时间: 2021-12-21 21:39:12 大小:19.59 MB 文件数量:3 热度:3 最近下载:2025-01-25 04:49:03
    {"INFO!!!.txt": 604, "STREFA PREMIUM !!!!.txt": 432, "upload by Lukario007.gif": 1131043, "Gorąco Zapraszamy !!!!!.url": 115, "Keanu.2016.PL.BDRip.XviD-KRT.avi": 733884416}
创建时间: 2021-12-26 18:06:55 大小:700.97 MB 文件数量:5 热度:3 最近下载:2025-02-05 08:08:02
    {"Keanu 2016.avi": 838860800, "Keanu 2016.txt": 42, "Ultra XVid Codec Pack.exe": 12582912}
创建时间: 2022-01-02 19:25:08 大小:812 MB 文件数量:3 热度:4 最近下载:2025-01-21 12:54:03
    {"[TGx]Downloaded from torrentgalaxy.to .txt": 718, "stephen.colbert.2022.01.12.keanu.reeves.720p.web.h264-muxed.mkv": 949669517, "stephen.colbert.2022.01.12.keanu.reeves.720p.web.h264-muxed.nfo": 552}
创建时间: 2022-01-13 23:04:58 大小:905.68 MB 文件数量:3 热度:4 最近下载:2025-03-20 19:30:02
    {"RARBG.txt": 30, "RARBG_DO_NOT_MIRROR.exe": 99, "stephen.colbert.2022.01.12.keanu.reeves.720p.web.h264-muxed.mkv": 949669517, "stephen.colbert.2022.01.12.keanu.reeves.720p.web.h264-muxed.nfo": 552}
创建时间: 2022-01-14 08:37:48 大小:905.68 MB 文件数量:4 热度:3 最近下载:2025-01-21 18:22:07
    {"RARBG.txt": 30, "RARBG_DO_NOT_MIRROR.exe": 99, "stephen.colbert.2022.01.12.keanu.reeves.1080p.web.h264-muxed.mkv": 1406051122, "stephen.colbert.2022.01.12.keanu.reeves.1080p.web.h264-muxed.nfo": 556}
创建时间: 2022-01-16 07:30:02 大小:1.31 GB 文件数量:4 热度:3 最近下载:2025-01-05 10:04:03
    {"The Matrix Resurrections (2021) 1.png": 1517192, "The Matrix Resurrections (2021) 2.png": 1252410, "The Matrix Resurrections (2021) 1080p BluRay H264 DolbyD 5.1 + nickarad.mp4": 3396368447, "The Matrix Resurrections (2021) 1080p BluRay H264 DolbyD 5.1 + ...
创建时间: 2022-02-20 10:36:57 大小:3.17 GB 文件数量:5 热度:9 最近下载:2025-03-13 00:53:03
    {"Keanu.2016.1080p-dual-lat.mp4": 1643684800, "Descargar Películas, Series y Animes Gratis....url": 50}
创建时间: 2022-02-22 18:42:31 大小:1.53 GB 文件数量:2 热度:4 最近下载:2025-02-06 06:16:04